Hoppet Af Brantevik — SKWL — position and weather

sailwx.info

Track history (hours):
 
Tides and Currents Weather Stations Pressure Air Temp Water Temp Dewpoint Dewpoint Depression Visibility Wind Speed Wind Dir Waves Ship Positions

Hoppet Af Brantevik

Last reported at 2016-Sep-28 21:29 UTC. Time now 2016-Sep-28 23:59 UTC.
Position N 55°31' E 014°21'.

Length 17 m; draft 2.2 m.

Type: Ship. MMSI: 265525900.

Date/timePositionNaut miles runAvg speedWind from/ knotsBaromVisibWave heightAir tempDewpointWater temp
2016-Sep-28 21:29N 55°31' E 014°21'0 0.0
2016-Sep-28 19:29N 55°31' E 014°21'0 0.0
2016-Sep-28 16:29N 55°31' E 014°21'0 0.0
2016-Sep-28 15:29N 55°31' E 014°21'0 0.0
2016-Sep-28 12:29N 55°31' E 014°21'0 0.0
2016-Sep-28 08:29N 55°31' E 014°21'0 0.0
2016-Sep-28 03:29N 55°31' E 014°21'0 0.0
2016-Sep-28 02:29N 55°31' E 014°21'0 0.0
2016-Sep-28 01:29N 55°31' E 014°21'0 0.0
2016-Sep-27 23:29N 55°31' E 014°21'0 0.0
2016-Sep-27 19:29N 55°31' E 014°21'0 0.0
2016-Sep-27 14:23N 55°31' E 014°21'0 0.0
2016-Sep-27 13:29N 55°31' E 014°21'0 0.0
2016-Sep-27 10:29N 55°31' E 014°21'0 0.0
2016-Sep-27 00:29N 55°31' E 014°21'0 0.0
2016-Sep-26 20:29N 55°31' E 014°21'0 0.0
2016-Sep-26 19:29N 55°31' E 014°21'0 0.0
2016-Sep-26 15:17N 55°31' E 014°21'0 0.0
2016-Sep-26 13:23N 55°31' E 014°21'0 0.0
2016-Sep-26 11:29N 55°31' E 014°21'0 0.0
2016-Sep-26 08:29N 55°31' E 014°21'0 0.0
2016-Sep-26 02:29N 55°31' E 014°21'0 0.0
2016-Sep-26 01:23N 55°31' E 014°21'0 0.0
2016-Sep-26 00:29N 55°31' E 014°21'0 0.0
2016-Sep-25 21:29N 55°31' E 014°21'0 0.0
2016-Sep-25 17:29N 55°31' E 014°21'0 0.0
2016-Sep-25 16:29N 55°31' E 014°21'0 0.0
2016-Sep-25 15:29N 55°31' E 014°21'0 0.0
2016-Sep-25 14:29N 55°31' E 014°21'0 0.0
2016-Sep-25 12:17N 55°31' E 014°21'0 0.0
2016-Sep-25 11:05N 55°31' E 014°21'0 0.0
2016-Sep-25 10:29N 55°31' E 014°21'0 0.0
2016-Sep-25 09:29N 55°31' E 014°21'0 0.0
2016-Sep-25 07:23N 55°31' E 014°21'0 0.0
2016-Sep-25 04:29N 55°31' E 014°21'0 0.0
2016-Sep-25 00:29N 55°31' E 014°21'0 0.0
2016-Sep-24 22:29N 55°31' E 014°21'0 0.0
2016-Sep-24 21:23N 55°31' E 014°21'0 0.0
2016-Sep-24 19:29N 55°31' E 014°21'0 0.0
2016-Sep-24 18:29N 55°31' E 014°21'0 0.0
2016-Sep-24 17:29N 55°31' E 014°21'0 0.0
2016-Sep-24 16:29N 55°31' E 014°21'0 0.0
2016-Sep-24 14:34N 55°31' E 014°21'10 5.1
2016-Sep-24 12:34N 55°41' E 014°16'2 0.8
2016-Sep-24 10:33N 55°41' E 014°14'0 0.0
2016-Sep-24 09:30N 55°41' E 014°14'11 1.9
2016-Sep-24 03:31N 55°31' E 014°21'0 0.0
2016-Sep-24 02:25N 55°31' E 014°21'0 0.0
2016-Sep-24 01:31N 55°31' E 014°21'0 0.0
2016-Sep-24 00:31N 55°31' E 014°21'0 0.0
2016-Sep-23 19:31N 55°31' E 014°21'0 0.0
2016-Sep-23 17:31N 55°31' E 014°21'0 0.0
2016-Sep-23 16:31N 55°31' E 014°21'0 0.0
2016-Sep-23 15:31N 55°31' E 014°21'0 0.0
2016-Sep-23 13:25N 55°31' E 014°21'0 0.0
2016-Sep-23 09:31N 55°31' E 014°21'0 0.0
2016-Sep-23 06:31N 55°31' E 014°21'0 0.0
2016-Sep-23 04:31N 55°31' E 014°21'0 0.0
2016-Sep-23 03:31N 55°31' E 014°21'0 0.0
2016-Sep-23 02:31N 55°31' E 014°21'0 0.0
2016-Sep-23 01:31N 55°31' E 014°21'0 0.0
2016-Sep-23 00:31N 55°31' E 014°21'0 0.0
2016-Sep-22 23:31N 55°31' E 014°21'0 0.0
2016-Sep-22 20:31N 55°31' E 014°21'0 0.0
2016-Sep-22 12:25N 55°31' E 014°21'0 0.0
2016-Sep-22 04:31N 55°31' E 014°21'0 0.0
2016-Sep-22 03:31N 55°31' E 014°21'0 0.0
2016-Sep-22 00:31N 55°31' E 014°21'0 0.0
2016-Sep-21 23:31N 55°31' E 014°21'0 0.0
2016-Sep-21 22:25N 55°31' E 014°21'0 0.0
2016-Sep-21 19:31N 55°31' E 014°21'0 0.0
2016-Sep-21 16:31N 55°31' E 014°21'0 0.0
2016-Sep-21 09:31N 55°31' E 014°21'0 0.0
2016-Sep-21 08:31N 55°31' E 014°21'0 0.0
2016-Sep-21 03:31N 55°31' E 014°21'0 0.0
2016-Sep-21 02:31N 55°31' E 014°21'0 0.0
2016-Sep-20 17:31N 55°31' E 014°21'0 0.0
2016-Sep-20 14:31N 55°31' E 014°21'0 0.0
2016-Sep-20 13:31N 55°31' E 014°21'0 0.0
2016-Sep-20 10:31N 55°31' E 014°21'0 0.0
2016-Sep-20 08:31N 55°31' E 014°21'0 0.0
2016-Sep-20 07:31N 55°31' E 014°21'0 0.0
2016-Sep-20 06:31N 55°31' E 014°21'0 0.0
2016-Sep-20 02:31N 55°31' E 014°21'0 0.0
2016-Sep-19 23:31N 55°31' E 014°21'0 0.0
2016-Sep-19 19:31N 55°31' E 014°21'0 0.0
2016-Sep-19 18:19N 55°31' E 014°21'0 0.0
2016-Sep-19 16:25N 55°31' E 014°21'0 0.0
2016-Sep-19 14:31N 55°31' E 014°21'0 0.0
2016-Sep-19 13:31N 55°31' E 014°21'0 0.0
2016-Sep-19 12:31N 55°31' E 014°21'0 0.0
2016-Sep-19 11:25N 55°31' E 014°21'0 0.0
2016-Sep-19 09:31N 55°31' E 014°21'0 0.0
2016-Sep-19 07:31N 55°31' E 014°21'0 0.0
2016-Sep-19 06:31N 55°31' E 014°21'0 0.0
2016-Sep-19 03:19N 55°31' E 014°21'0 0.0
2016-Sep-19 02:31N 55°31' E 014°21'0 0.0
2016-Sep-19 00:25N 55°31' E 014°21'  
Track history (hours):
 
Tides and Currents Weather Stations Pressure Air Temp Water Temp Dewpoint Dewpoint Depression Visibility Wind Speed Wind Dir Waves Ship Positions

Hoppet Af Brantevik

Last reported at 2016-Sep-28 21:29 UTC. Time now 2016-Sep-28 23:59 UTC.
Position N 55°31' E 014°21'.

Length 17 m; draft 2.2 m.

Type: Ship. MMSI: 265525900.

Date/timePositionNaut miles runAvg speedWind from/ knotsBaromVisibWave heightAir tempDewpointWater temp
2016-Sep-28 21:29N 55°31' E 014°21'0 0.0
2016-Sep-28 19:29N 55°31' E 014°21'0 0.0
2016-Sep-28 16:29N 55°31' E 014°21'0 0.0
2016-Sep-28 15:29N 55°31' E 014°21'0 0.0
2016-Sep-28 12:29N 55°31' E 014°21'0 0.0
2016-Sep-28 08:29N 55°31' E 014°21'0 0.0
2016-Sep-28 03:29N 55°31' E 014°21'0 0.0
2016-Sep-28 02:29N 55°31' E 014°21'0 0.0
2016-Sep-28 01:29N 55°31' E 014°21'0 0.0
2016-Sep-27 23:29N 55°31' E 014°21'0 0.0
2016-Sep-27 19:29N 55°31' E 014°21'0 0.0
2016-Sep-27 14:23N 55°31' E 014°21'0 0.0
2016-Sep-27 13:29N 55°31' E 014°21'0 0.0
2016-Sep-27 10:29N 55°31' E 014°21'0 0.0
2016-Sep-27 00:29N 55°31' E 014°21'0 0.0
2016-Sep-26 20:29N 55°31' E 014°21'0 0.0
2016-Sep-26 19:29N 55°31' E 014°21'0 0.0
2016-Sep-26 15:17N 55°31' E 014°21'0 0.0
2016-Sep-26 13:23N 55°31' E 014°21'0 0.0
2016-Sep-26 11:29N 55°31' E 014°21'0 0.0
2016-Sep-26 08:29N 55°31' E 014°21'0 0.0
2016-Sep-26 02:29N 55°31' E 014°21'0 0.0
2016-Sep-26 01:23N 55°31' E 014°21'0 0.0
2016-Sep-26 00:29N 55°31' E 014°21'0 0.0
2016-Sep-25 21:29N 55°31' E 014°21'0 0.0
2016-Sep-25 17:29N 55°31' E 014°21'0 0.0
2016-Sep-25 16:29N 55°31' E 014°21'0 0.0
2016-Sep-25 15:29N 55°31' E 014°21'0 0.0
2016-Sep-25 14:29N 55°31' E 014°21'0 0.0
2016-Sep-25 12:17N 55°31' E 014°21'0 0.0
2016-Sep-25 11:05N 55°31' E 014°21'0 0.0
2016-Sep-25 10:29N 55°31' E 014°21'0 0.0
2016-Sep-25 09:29N 55°31' E 014°21'0 0.0
2016-Sep-25 07:23N 55°31' E 014°21'0 0.0
2016-Sep-25 04:29N 55°31' E 014°21'0 0.0
2016-Sep-25 00:29N 55°31' E 014°21'0 0.0
2016-Sep-24 22:29N 55°31' E 014°21'0 0.0
2016-Sep-24 21:23N 55°31' E 014°21'0 0.0
2016-Sep-24 19:29N 55°31' E 014°21'0 0.0
2016-Sep-24 18:29N 55°31' E 014°21'0 0.0
2016-Sep-24 17:29N 55°31' E 014°21'0 0.0
2016-Sep-24 16:29N 55°31' E 014°21'0 0.0
2016-Sep-24 14:34N 55°31' E 014°21'10 5.1
2016-Sep-24 12:34N 55°41' E 014°16'2 0.8
2016-Sep-24 10:33N 55°41' E 014°14'0 0.0
2016-Sep-24 09:30N 55°41' E 014°14'11 1.9
2016-Sep-24 03:31N 55°31' E 014°21'0 0.0
2016-Sep-24 02:25N 55°31' E 014°21'0 0.0
2016-Sep-24 01:31N 55°31' E 014°21'0 0.0
2016-Sep-24 00:31N 55°31' E 014°21'0 0.0
2016-Sep-23 19:31N 55°31' E 014°21'0 0.0
2016-Sep-23 17:31N 55°31' E 014°21'0 0.0
2016-Sep-23 16:31N 55°31' E 014°21'0 0.0
2016-Sep-23 15:31N 55°31' E 014°21'0 0.0
2016-Sep-23 13:25N 55°31' E 014°21'0 0.0
2016-Sep-23 09:31N 55°31' E 014°21'0 0.0
2016-Sep-23 06:31N 55°31' E 014°21'0 0.0
2016-Sep-23 04:31N 55°31' E 014°21'0 0.0
2016-Sep-23 03:31N 55°31' E 014°21'0 0.0
2016-Sep-23 02:31N 55°31' E 014°21'0 0.0
2016-Sep-23 01:31N 55°31' E 014°21'0 0.0
2016-Sep-23 00:31N 55°31' E 014°21'0 0.0
2016-Sep-22 23:31N 55°31' E 014°21'0 0.0
2016-Sep-22 20:31N 55°31' E 014°21'0 0.0
2016-Sep-22 12:25N 55°31' E 014°21'0 0.0
2016-Sep-22 04:31N 55°31' E 014°21'0 0.0
2016-Sep-22 03:31N 55°31' E 014°21'0 0.0
2016-Sep-22 00:31N 55°31' E 014°21'0 0.0
2016-Sep-21 23:31N 55°31' E 014°21'0 0.0
2016-Sep-21 22:25N 55°31' E 014°21'0 0.0
2016-Sep-21 19:31N 55°31' E 014°21'0 0.0
2016-Sep-21 16:31N 55°31' E 014°21'0 0.0
2016-Sep-21 09:31N 55°31' E 014°21'0 0.0
2016-Sep-21 08:31N 55°31' E 014°21'0 0.0
2016-Sep-21 03:31N 55°31' E 014°21'0 0.0
2016-Sep-21 02:31N 55°31' E 014°21'0 0.0
2016-Sep-20 17:31N 55°31' E 014°21'0 0.0
2016-Sep-20 14:31N 55°31' E 014°21'0 0.0
2016-Sep-20 13:31N 55°31' E 014°21'0 0.0
2016-Sep-20 10:31N 55°31' E 014°21'0 0.0
2016-Sep-20 08:31N 55°31' E 014°21'0 0.0
2016-Sep-20 07:31N 55°31' E 014°21'0 0.0
2016-Sep-20 06:31N 55°31' E 014°21'0 0.0
2016-Sep-20 02:31N 55°31' E 014°21'0 0.0
2016-Sep-19 23:31N 55°31' E 014°21'0 0.0
2016-Sep-19 19:31N 55°31' E 014°21'0 0.0
2016-Sep-19 18:19N 55°31' E 014°21'0 0.0
2016-Sep-19 16:25N 55°31' E 014°21'0 0.0
2016-Sep-19 14:31N 55°31' E 014°21'0 0.0
2016-Sep-19 13:31N 55°31' E 014°21'0 0.0
2016-Sep-19 12:31N 55°31' E 014°21'0 0.0
2016-Sep-19 11:25N 55°31' E 014°21'0 0.0
2016-Sep-19 09:31N 55°31' E 014°21'0 0.0
2016-Sep-19 07:31N 55°31' E 014°21'0 0.0
2016-Sep-19 06:31N 55°31' E 014°21'0 0.0
2016-Sep-19 03:19N 55°31' E 014°21'0 0.0
2016-Sep-19 02:31N 55°31' E 014°21'0 0.0
2016-Sep-19 00:25N 55°31' E 014°21'  

Dump ship's entire track history